Hauptseite
METAR-TAF:

METAR-TAF

Flughäfen :

Hazleton, Pennsylvania, Vereinigte Staaten

Breite: 40-59-12N, Länge: 075-59-42W, Höhe: 489 m

Beobachtung

Neuester Wetterbericht von vor 31 Minuten, um 20:35 UTC
Wind 7 kt aus Nord/Nordwest
Temperatur 10°C
Luftfeuchtigkeit 62%
Luftdruck 1017 hPa
Sichtweite: 16.1 km
Geschlossene Wolkendecke in der Höhe von 2300 ft

METAR: KHZL 242035Z AUTO 34007KT 10SM OVC023 10/03 A3004 RMK AO2

Zeit: 17:06 (21:06 UTC)


TAF: fehlend

Wetterbeobachtungen und Prognosen von mehr als 4000 Flughäfen (METAR und TAF Bericht).

Die verfügbaren Stationen werden durch gelbe und rote Markierungen auf der Karte dargestellt.

Führen Sie die Maus auf sie, um den Namen der Station zu sehen.

Darauf klicken, um die Beobachtung von Wetterbeobachtungen und Prognosen zu sehen.

Um die Karte zu ändern : klicken Sie auf den grünen Tasten mit einem schwarzen Kreuz Zum Vergrößern, auf den grünen Button mit einem Gedankenstrich zu verkleinern, oder auf die grünen Pfeile für benachbarte Karten.


METAR-TAF: